Time,TemperatureF,DewpointF,PressureIn,WindDirection,WindDirectionDegrees,WindSpeedMPH,WindSpeedGustMPH,Humidity,HourlyPrecipIn,Conditions,Clouds,dailyrainin,SoftwareType,DateUTC
2013-06-07 00:11:00,67.8,67.2,29.69,NNE,22,0.0,-999.0,98,-99.99,,,0.01,Acu-Link.com,2013-06-07 04:11:00,
2013-06-07 00:56:00,67.6,67.0,29.68,NNE,22,0.0,-999.0,98,-99.99,,,0.04,Acu-Link.com,2013-06-07 04:56:00,
2013-06-07 01:11:00,67.6,67.0,29.67,NNE,22,0.0,-999.0,98,-99.99,,,0.07,Acu-Link.com,2013-06-07 05:11:00,
2013-06-07 01:27:00,67.6,67.0,29.66,NNW,337,0.0,-999.0,98,-99.99,,,0.09,Acu-Link.com,2013-06-07 05:27:00,
2013-06-07 01:42:00,67.6,67.0,29.65,NNW,337,0.0,-999.0,98,-99.99,,,0.09,Acu-Link.com,2013-06-07 05:42:00,
2013-06-07 01:57:00,67.5,66.9,29.65,NNW,337,0.0,-999.0,98,-99.99,,,0.10,Acu-Link.com,2013-06-07 05:57:00,
2013-06-07 02:12:00,67.5,66.9,29.64,NNW,337,0.0,-999.0,98,-99.99,,,0.11,Acu-Link.com,2013-06-07 06:12:00,
2013-06-07 02:27:00,67.3,66.7,29.63,WNW,292,0.0,-999.0,98,-99.99,,,0.13,Acu-Link.com,2013-06-07 06:27:00,
2013-06-07 02:42:00,67.3,66.7,29.62,WNW,292,0.0,-999.0,98,-99.99,,,0.15,Acu-Link.com,2013-06-07 06:42:00,
2013-06-07 02:58:00,67.3,66.7,29.61,SSW,202,0.0,-999.0,98,-99.99,,,0.16,Acu-Link.com,2013-06-07 06:58:00,
2013-06-07 03:13:00,67.3,66.7,29.61,SSW,202,0.0,-999.0,98,-99.99,,,0.17,Acu-Link.com,2013-06-07 07:13:00,
2013-06-07 03:28:00,67.3,66.7,29.60,SSW,202,0.0,-999.0,98,-99.99,,,0.18,Acu-Link.com,2013-06-07 07:28:00,
2013-06-07 03:43:00,67.3,66.7,29.60,SSW,202,0.0,-999.0,98,-99.99,,,0.21,Acu-Link.com,2013-06-07 07:43:00,
2013-06-07 03:58:00,67.3,66.7,29.59,SSW,202,0.0,-999.0,98,-99.99,,,0.22,Acu-Link.com,2013-06-07 07:58:00,
2013-06-07 04:13:00,67.1,66.5,29.58,SSW,202,0.0,-999.0,98,-99.99,,,0.23,Acu-Link.com,2013-06-07 08:13:00,
2013-06-07 04:29:00,66.9,66.3,29.57,South,180,0.0,-999.0,98,-99.99,,,0.24,Acu-Link.com,2013-06-07 08:29:00,
2013-06-07 04:44:00,66.9,66.3,29.57,West,270,0.0,-999.0,98,-99.99,,,0.25,Acu-Link.com,2013-06-07 08:44:00,
2013-06-07 04:59:00,66.9,66.3,29.58,ENE,67,0.0,-999.0,98,-99.99,,,0.25,Acu-Link.com,2013-06-07 08:59:00,
2013-06-07 05:14:00,66.7,66.1,29.57,SW,225,0.0,-999.0,98,-99.99,,,0.26,Acu-Link.com,2013-06-07 09:14:00,
2013-06-07 05:29:00,66.7,66.1,29.58,SSW,202,0.0,-999.0,98,-99.99,,,0.26,Acu-Link.com,2013-06-07 09:29:00,
2013-06-07 05:44:00,66.7,66.1,29.57,WSW,247,0.0,-999.0,98,-99.99,,,0.26,Acu-Link.com,2013-06-07 09:44:00,
2013-06-07 05:59:00,66.6,66.0,29.58,WSW,247,0.0,-999.0,98,-99.99,,,0.26,Acu-Link.com,2013-06-07 09:59:00,
2013-06-07 06:15:00,66.6,66.0,29.58,ESE,112,0.0,-999.0,98,-99.99,,,0.26,Acu-Link.com,2013-06-07 10:15:00,
2013-06-07 06:30:00,66.4,65.8,29.58,SW,225,0.0,-999.0,98,-99.99,,,0.26,Acu-Link.com,2013-06-07 10:30:00,
2013-06-07 06:45:00,66.2,65.6,29.58,West,270,0.0,-999.0,98,-99.99,,,0.26,Acu-Link.com,2013-06-07 10:45:00,
2013-06-07 07:00:00,66.2,65.6,29.59,WSW,247,0.0,-999.0,98,-99.99,,,0.27,Acu-Link.com,2013-06-07 11:00:00,
2013-06-07 07:15:00,66.4,65.8,29.58,SSW,202,0.0,-999.0,98,-99.99,,,0.27,Acu-Link.com,2013-06-07 11:15:00,
2013-06-07 07:30:00,66.6,66.0,29.59,South,180,0.0,-999.0,98,-99.99,,,0.28,Acu-Link.com,2013-06-07 11:30:00,
2013-06-07 07:46:00,66.7,66.1,29.58,ESE,112,0.0,-999.0,98,-99.99,,,0.29,Acu-Link.com,2013-06-07 11:46:00,
2013-06-07 08:01:00,67.1,66.5,29.58,ESE,112,0.0,-999.0,98,-99.99,,,0.29,Acu-Link.com,2013-06-07 12:01:00,
2013-06-07 08:16:00,67.5,66.9,29.58,SE,135,0.0,-999.0,98,-99.99,,,0.31,Acu-Link.com,2013-06-07 12:16:00,
2013-06-07 08:31:00,67.8,67.2,29.58,South,180,0.0,-999.0,98,-99.99,,,0.31,Acu-Link.com,2013-06-07 12:31:00,
2013-06-07 08:46:00,68.7,68.1,29.58,ESE,112,0.0,-999.0,98,-99.99,,,0.32,Acu-Link.com,2013-06-07 12:46:00,
2013-06-07 09:01:00,69.4,68.8,29.58,SW,225,0.0,-999.0,98,-99.99,,,0.32,Acu-Link.com,2013-06-07 13:01:00,
2013-06-07 09:16:00,69.8,69.2,29.60,South,180,0.0,-999.0,98,-99.99,,,0.32,Acu-Link.com,2013-06-07 13:16:00,
2013-06-07 09:32:00,70.5,69.9,29.60,SE,135,0.0,-999.0,98,-99.99,,,0.33,Acu-Link.com,2013-06-07 13:32:00,
2013-06-07 09:47:00,71.8,71.2,29.59,ESE,112,0.0,-999.0,98,-99.99,,,0.33,Acu-Link.com,2013-06-07 13:47:00,
2013-06-07 10:02:00,72.3,71.7,29.60,South,180,0.0,-999.0,98,-99.99,,,0.33,Acu-Link.com,2013-06-07 14:02:00,
2013-06-07 10:17:00,74.5,73.9,29.60,ESE,112,1.7,-999.0,98,-99.99,,,0.33,Acu-Link.com,2013-06-07 14:17:00,
2013-06-07 10:32:00,75.4,74.8,29.60,SW,225,1.1,-999.0,98,-99.99,,,0.33,Acu-Link.com,2013-06-07 14:32:00,
2013-06-07 17:31:00,75.4,70.9,29.60,SSE,157,0.0,-999.0,86,-99.99,,,0.33,Acu-Link.com,2013-06-07 21:31:00,
2013-06-07 17:46:00,75.7,71.5,29.60,West,270,0.0,-999.0,87,-99.99,,,0.33,Acu-Link.com,2013-06-07 21:46:00,
2013-06-07 18:02:00,79.5,73.9,29.61,West,270,0.0,-999.0,83,-99.99,,,0.33,Acu-Link.com,2013-06-07 22:02:00,
2013-06-07 18:32:00,78.3,74.1,29.60,ESE,112,1.7,-999.0,87,-99.99,,,0.33,Acu-Link.com,2013-06-07 22:32:00,
2013-06-07 19:03:00,77.0,74.2,29.61,SSE,157,0.0,-999.0,91,-99.99,,,0.33,Acu-Link.com,2013-06-07 23:03:00,
2013-06-07 19:18:00,77.2,74.4,29.62,West,270,0.0,-999.0,91,-99.99,,,0.33,Acu-Link.com,2013-06-07 23:18:00,
2013-06-07 19:33:00,76.5,73.7,29.62,West,270,0.0,-999.0,91,-99.99,,,0.33,Acu-Link.com,2013-06-07 23:33:00,
2013-06-07 19:48:00,74.7,72.9,29.65,East,90,2.2,-999.0,94,-99.99,,,0.34,Acu-Link.com,2013-06-07 23:48:00,
2013-06-07 20:40:00,72.5,71.0,29.65,WNW,292,0.0,-999.0,95,-99.99,,,0.41,Acu-Link.com,2013-06-08 00:40:00,
2013-06-07 20:56:00,68.5,67.9,29.66,WNW,292,0.0,-999.0,98,-99.99,,,0.42,Acu-Link.com,2013-06-08 00:56:00,
2013-06-07 21:11:00,68.4,67.8,29.66,WNW,292,0.0,-999.0,98,-99.99,,,0.42,Acu-Link.com,2013-06-08 01:11:00,
2013-06-07 21:26:00,68.2,67.6,29.67,WNW,292,0.0,-999.0,98,-99.99,,,0.42,Acu-Link.com,2013-06-08 01:26:00,